createdAt,value
2024-01-09T00:00:09.218Z,-8.2
2024-01-09T00:01:11.250Z,-8.2
2024-01-09T00:02:13.240Z,-8.2
2024-01-09T00:03:15.284Z,-8.2
2024-01-09T00:04:17.195Z,-8.3
2024-01-09T00:05:19.288Z,-8.3
2024-01-09T00:06:21.343Z,-8.3
2024-01-09T00:07:23.181Z,-8.3
2024-01-09T00:08:25.229Z,-8.3
2024-01-09T00:09:27.202Z,-8.3
2024-01-09T00:10:29.206Z,-8.3
2024-01-09T00:11:31.211Z,-8.3
2024-01-09T00:12:33.172Z,-8.3
2024-01-09T00:13:35.173Z,-8.3
2024-01-09T00:14:37.266Z,-8.3
2024-01-09T00:15:39.171Z,-8.3
2024-01-09T00:16:41.181Z,-8.3
2024-01-09T00:17:43.231Z,-8.3
2024-01-09T00:18:45.225Z,-8.4
2024-01-09T00:19:47.210Z,-8.4
2024-01-09T00:20:49.192Z,-8.5
2024-01-09T00:21:51.164Z,-8.5
2024-01-09T00:22:53.164Z,-8.5
2024-01-09T00:23:55.230Z,-8.5
2024-01-09T00:24:57.157Z,-8.5
2024-01-09T00:25:59.165Z,-8.5
2024-01-09T00:27:01.420Z,-8.5
2024-01-09T00:28:03.154Z,-8.5
2024-01-09T00:29:05.197Z,-8.5
2024-01-09T00:30:07.160Z,-8.5
2024-01-09T00:31:09.173Z,-8.5
2024-01-09T00:32:11.242Z,-8.6
2024-01-09T00:33:13.259Z,-8.5
2024-01-09T00:34:15.213Z,-8.5
2024-01-09T00:35:17.159Z,-8.5
2024-01-09T00:36:19.142Z,-8.6
2024-01-09T00:37:21.172Z,-8.5
2024-01-09T00:38:23.195Z,-8.6
2024-01-09T00:39:25.134Z,-8.6
2024-01-09T00:40:27.135Z,-8.6
2024-01-09T00:41:29.161Z,-8.6
2024-01-09T00:42:31.185Z,-8.6
2024-01-09T00:43:33.142Z,-8.6
2024-01-09T00:44:35.151Z,-8.6
2024-01-09T00:45:39.149Z,-8.6
2024-01-09T00:46:40.157Z,-8.6
2024-01-09T00:47:42.186Z,-8.5
2024-01-09T00:48:44.188Z,-8.5
2024-01-09T00:49:46.132Z,-8.5
2024-01-09T00:50:48.138Z,-8.5
2024-01-09T00:51:50.098Z,-8.6
2024-01-09T00:52:52.066Z,-8.5
2024-01-09T00:53:54.130Z,-8.5
2024-01-09T00:54:56.068Z,-8.5
2024-01-09T00:55:58.090Z,-8.5
2024-01-09T00:57:00.090Z,-8.5
2024-01-09T00:58:02.094Z,-8.5
2024-01-09T00:59:04.065Z,-8.5
2024-01-09T01:00:06.065Z,-8.5
2024-01-09T01:01:08.160Z,-8.5
2024-01-09T01:02:10.126Z,-8.5
2024-01-09T01:03:12.113Z,-8.5
2024-01-09T01:04:14.063Z,-8.5
2024-01-09T01:05:16.101Z,-8.5
2024-01-09T01:06:18.099Z,-8.5
2024-01-09T01:07:20.047Z,-8.5
2024-01-09T01:08:22.089Z,-8.5
2024-01-09T01:09:24.042Z,-8.5
2024-01-09T01:10:26.080Z,-8.5
2024-01-09T01:11:28.082Z,-8.5
2024-01-09T01:12:30.049Z,-8.5
2024-01-09T01:13:32.072Z,-8.5
2024-01-09T01:14:34.054Z,-8.5
2024-01-09T01:15:36.062Z,-8.5
2024-01-09T01:16:38.045Z,-8.5
2024-01-09T01:17:40.096Z,-8.5
2024-01-09T01:18:42.070Z,-8.5
2024-01-09T01:19:44.112Z,-8.6
2024-01-09T01:20:46.125Z,-8.6
2024-01-09T01:21:48.051Z,-8.5
2024-01-09T01:22:50.026Z,-8.5
2024-01-09T01:23:52.099Z,-8.5
2024-01-09T01:24:54.048Z,-8.6
2024-01-09T01:25:56.022Z,-8.6
2024-01-09T01:26:58.040Z,-8.6
2024-01-09T01:28:00.044Z,-8.6
2024-01-09T01:29:02.075Z,-8.6
2024-01-09T01:30:04.095Z,-8.6
2024-01-09T01:31:06.055Z,-8.6
2024-01-09T01:32:08.019Z,-8.7
2024-01-09T01:33:10.198Z,-8.6
2024-01-09T01:34:12.057Z,-8.6
2024-01-09T01:35:14.048Z,-8.6
2024-01-09T01:36:16.011Z,-8.6
2024-01-09T01:37:18.003Z,-8.6
2024-01-09T01:38:20.023Z,-8.7
2024-01-09T01:39:22.026Z,-8.6
2024-01-09T01:40:24.003Z,-8.7
2024-01-09T01:41:26.035Z,-8.7
2024-01-09T01:42:28.002Z,-8.7
2024-01-09T01:43:30.032Z,-8.7
2024-01-09T01:44:32.039Z,-8.7
2024-01-09T01:45:33.995Z,-8.7
2024-01-09T01:46:36.024Z,-8.7
2024-01-09T01:47:38.032Z,-8.7
2024-01-09T01:48:40.345Z,-8.7
2024-01-09T01:49:41.993Z,-8.7
2024-01-09T01:50:44.080Z,-8.7
2024-01-09T01:51:45.988Z,-8.7
2024-01-09T01:52:48.081Z,-8.7
2024-01-09T01:53:50.076Z,-8.8
2024-01-09T01:54:51.983Z,-8.8
2024-01-09T01:55:53.979Z,-8.8
2024-01-09T01:56:56.048Z,-8.8
2024-01-09T01:57:58.016Z,-8.9
2024-01-09T01:58:59.975Z,-8.9
2024-01-09T02:00:02.010Z,-9
2024-01-09T02:01:04.043Z,-9
2024-01-09T02:02:06.048Z,-9
2024-01-09T02:03:07.966Z,-9.1
2024-01-09T02:04:10.030Z,-9.1
2024-01-09T02:05:12.027Z,-9.1
2024-01-09T02:06:14.128Z,-9.1
2024-01-09T02:07:15.974Z,-9.1
2024-01-09T02:08:17.970Z,-9.1
2024-01-09T02:09:19.961Z,-9.2
2024-01-09T02:10:21.977Z,-9.3
2024-01-09T02:11:23.996Z,-9.3
2024-01-09T02:12:25.956Z,-9.3
2024-01-09T02:13:27.961Z,-9.3
2024-01-09T02:14:30.052Z,-9.3
2024-01-09T02:15:32.011Z,-9.3
2024-01-09T02:16:33.978Z,-9.3
2024-01-09T02:17:35.993Z,-9.3
2024-01-09T02:18:37.979Z,-9.3
2024-01-09T02:19:39.993Z,-9.3
2024-01-09T02:20:42.039Z,-9.3
2024-01-09T02:21:43.947Z,-9.3
2024-01-09T02:22:45.963Z,-9.3
2024-01-09T02:23:47.962Z,-9.3
2024-01-09T02:24:49.981Z,-9.3
2024-01-09T02:25:52.000Z,-9.3
2024-01-09T02:26:59.561Z,-9.3
2024-01-09T02:28:06.379Z,-9.3
2024-01-09T02:29:08.364Z,-9.3
2024-01-09T02:30:10.366Z,-9.3
2024-01-09T02:31:12.351Z,-9.3
2024-01-09T02:32:14.325Z,-9.4
2024-01-09T02:33:16.397Z,-9.4
2024-01-09T02:34:18.407Z,-9.4
2024-01-09T02:35:20.366Z,-9.5
2024-01-09T02:36:22.317Z,-9.5
2024-01-09T02:37:24.336Z,-9.5
2024-01-09T02:38:26.364Z,-9.5
2024-01-09T02:39:28.341Z,-9.5
2024-01-09T02:40:30.320Z,-9.5
2024-01-09T02:41:32.380Z,-9.5
2024-01-09T02:42:34.316Z,-9.3
2024-01-09T02:43:36.336Z,-9.3
2024-01-09T02:44:38.355Z,-9.3
2024-01-09T02:45:40.307Z,-9.3
2024-01-09T02:46:42.343Z,-9.3
2024-01-09T02:47:44.367Z,-9.2
2024-01-09T02:48:46.405Z,-9.1
2024-01-09T02:49:48.374Z,-9.2
2024-01-09T02:50:50.439Z,-9.2
2024-01-09T02:51:52.301Z,-9.2
2024-01-09T02:52:54.355Z,-9.2
2024-01-09T02:53:56.367Z,-9.3
2024-01-09T02:54:58.304Z,-9.3
2024-01-09T02:56:00.303Z,-9.3
2024-01-09T02:57:02.296Z,-9.3
2024-01-09T02:58:04.325Z,-9.4
2024-01-09T02:59:06.291Z,-9.4
2024-01-09T03:00:08.292Z,-9.5
2024-01-09T03:01:10.310Z,-9.5
2024-01-09T03:02:12.326Z,-9.5
2024-01-09T03:03:14.388Z,-9.5
2024-01-09T03:04:16.284Z,-9.6
2024-01-09T03:05:18.409Z,-9.6
2024-01-09T03:06:20.472Z,-9.6
2024-01-09T03:07:22.396Z,-9.6
2024-01-09T03:08:24.337Z,-9.6
2024-01-09T03:09:26.278Z,-9.6
2024-01-09T03:10:28.274Z,-9.6
2024-01-09T03:11:30.324Z,-9.6
2024-01-09T03:12:32.299Z,-9.6
2024-01-09T03:13:34.273Z,-9.6
2024-01-09T03:14:36.275Z,-9.6
2024-01-09T03:15:38.272Z,-9.7
2024-01-09T03:16:40.299Z,-9.7
2024-01-09T03:17:42.408Z,-9.7
2024-01-09T03:18:44.371Z,-9.7
2024-01-09T03:19:46.282Z,-9.7
2024-01-09T03:20:48.423Z,-9.7
2024-01-09T03:21:50.294Z,-9.8
2024-01-09T03:22:52.272Z,-9.8
2024-01-09T03:23:54.302Z,-9.8
2024-01-09T03:24:56.257Z,-9.8
2024-01-09T03:25:58.290Z,-9.9
2024-01-09T03:27:00.261Z,-9.9
2024-01-09T03:28:02.262Z,-9.9
2024-01-09T03:29:04.259Z,-9.9
2024-01-09T03:30:06.372Z,-9.9
2024-01-09T03:31:08.298Z,-9.9
2024-01-09T03:32:10.339Z,-9.9
2024-01-09T03:33:12.436Z,-9.9
2024-01-09T03:34:14.258Z,-9.9
2024-01-09T03:35:16.303Z,-9.9
2024-01-09T03:36:18.244Z,-9.9
2024-01-09T03:37:20.247Z,-9.9
2024-01-09T03:38:22.275Z,-9.9
2024-01-09T03:39:24.274Z,-9.9
2024-01-09T03:40:26.279Z,-9.9
2024-01-09T03:41:28.242Z,-9.9
2024-01-09T03:42:30.238Z,-9.9
2024-01-09T03:43:32.236Z,-9.9
2024-01-09T03:44:34.306Z,-9.8
2024-01-09T03:45:36.236Z,-9.7
2024-01-09T03:46:38.237Z,-9.7
2024-01-09T03:47:40.289Z,-9.6
2024-01-09T03:48:42.346Z,-9.5
2024-01-09T03:49:44.255Z,-9.5
2024-01-09T03:50:46.335Z,-9.3
2024-01-09T03:51:48.243Z,-9.3
2024-01-09T03:52:50.261Z,-9.3
2024-01-09T03:53:52.244Z,-9.1
2024-01-09T03:54:54.219Z,-9.1
2024-01-09T03:55:56.231Z,-9.1
2024-01-09T03:56:58.213Z,-9.1
2024-01-09T03:58:00.249Z,-9.1
2024-01-09T03:59:02.236Z,-9.1
2024-01-09T04:00:04.217Z,-9.1
2024-01-09T04:01:06.246Z,-9.1
2024-01-09T04:02:08.249Z,-9.1
2024-01-09T04:03:10.306Z,-9.1
2024-01-09T04:04:12.231Z,-9.1
2024-01-09T04:05:14.278Z,-9.1
2024-01-09T04:06:16.268Z,-9.2
2024-01-09T04:07:18.202Z,-9.3
2024-01-09T04:08:20.277Z,-9.3
2024-01-09T04:09:22.206Z,-9.3
2024-01-09T04:10:24.202Z,-9.3
2024-01-09T04:11:26.220Z,-9.3
2024-01-09T04:12:28.236Z,-9.3
2024-01-09T04:13:30.196Z,-9.3
2024-01-09T04:14:34.169Z,-9.3
2024-01-09T04:15:38.106Z,-9.3
2024-01-09T04:16:40.148Z,-9.2
2024-01-09T04:17:42.186Z,-9.2
2024-01-09T04:18:44.174Z,-9.1
2024-01-09T04:19:46.212Z,-9.2
2024-01-09T04:20:48.144Z,-9.2
2024-01-09T04:21:50.128Z,-9.3
2024-01-09T04:22:52.104Z,-9.3
2024-01-09T04:23:54.107Z,-9.4
2024-01-09T04:24:56.094Z,-9.5
2024-01-09T04:25:58.118Z,-9.5
2024-01-09T04:27:00.172Z,-9.6
2024-01-09T04:28:02.106Z,-9.6
2024-01-09T04:29:04.090Z,-9.6
2024-01-09T04:30:06.109Z,-9.7
2024-01-09T04:31:08.124Z,-9.7
2024-01-09T04:32:10.143Z,-9.7
2024-01-09T04:33:12.244Z,-9.6
2024-01-09T04:34:14.194Z,-9.6
2024-01-09T04:35:16.181Z,-9.6
2024-01-09T04:36:18.145Z,-9.6
2024-01-09T04:37:20.074Z,-9.6
2024-01-09T04:38:22.098Z,-9.6
2024-01-09T04:39:24.077Z,-9.6
2024-01-09T04:40:26.107Z,-9.6
2024-01-09T04:41:28.113Z,-9.6
2024-01-09T04:42:30.064Z,-9.6
2024-01-09T04:43:32.061Z,-9.6
2024-01-09T04:44:34.087Z,-9.7
2024-01-09T04:45:36.111Z,-9.7
2024-01-09T04:46:38.061Z,-9.7
2024-01-09T04:47:40.218Z,-9.7
2024-01-09T04:48:42.172Z,-9.8
2024-01-09T04:49:44.084Z,-9.8
2024-01-09T04:50:46.126Z,-9.8
2024-01-09T04:51:48.060Z,-9.8
2024-01-09T04:52:50.052Z,-9.8
2024-01-09T04:53:52.072Z,-9.7
2024-01-09T04:54:54.074Z,-9.7
2024-01-09T04:55:56.046Z,-9.7
2024-01-09T04:56:59.547Z,-9.6
2024-01-09T04:58:00.610Z,-9.6
2024-01-09T04:59:02.642Z,-9.5
2024-01-09T05:00:04.637Z,-9.4
2024-01-09T05:01:06.641Z,-9.3
2024-01-09T05:02:08.604Z,-9.3
2024-01-09T05:03:10.708Z,-9.3
2024-01-09T05:04:12.650Z,-9.3
2024-01-09T05:05:14.690Z,-9.3
2024-01-09T05:06:16.730Z,-9.3
2024-01-09T05:07:18.602Z,-9.3
2024-01-09T05:08:20.665Z,-9.3
2024-01-09T05:09:22.658Z,-9.3
2024-01-09T05:10:24.598Z,-9.3
2024-01-09T05:11:26.622Z,-9.3
2024-01-09T05:12:28.593Z,-9.3
2024-01-09T05:13:30.621Z,-9.3
2024-01-09T05:14:32.605Z,-9.3
2024-01-09T05:15:34.596Z,-9.3
2024-01-09T05:16:36.591Z,-9.3
2024-01-09T05:17:38.695Z,-9.3
2024-01-09T05:18:40.662Z,-9.3
2024-01-09T05:19:42.580Z,-9.3
2024-01-09T05:20:44.622Z,-9.3
2024-01-09T05:21:46.621Z,-9.3
2024-01-09T05:22:48.612Z,-9.3
2024-01-09T05:23:50.591Z,-9.3
2024-01-09T05:24:52.576Z,-9.1
2024-01-09T05:25:54.620Z,-9.1
2024-01-09T05:26:56.687Z,-9.1
2024-01-09T05:27:58.616Z,-9.1
2024-01-09T05:29:00.576Z,-9.1
2024-01-09T05:30:02.574Z,-9
2024-01-09T05:31:04.575Z,-9
2024-01-09T05:32:06.593Z,-9
2024-01-09T05:33:08.741Z,-8.9
2024-01-09T05:34:10.612Z,-8.9
2024-01-09T05:35:12.641Z,-8.9
2024-01-09T05:36:14.590Z,-8.8
2024-01-09T05:37:16.608Z,-8.9
2024-01-09T05:38:19.317Z,-8.9
2024-01-09T05:39:20.567Z,-8.9
2024-01-09T05:40:22.557Z,-8.9
2024-01-09T05:41:24.616Z,-8.9
2024-01-09T05:42:26.551Z,-8.9
2024-01-09T05:43:28.547Z,-8.9
2024-01-09T05:44:30.561Z,-8.9
2024-01-09T05:45:32.577Z,-8.8
2024-01-09T05:46:34.576Z,-8.9
2024-01-09T05:47:36.655Z,-8.8
2024-01-09T05:48:38.612Z,-8.7
2024-01-09T05:49:40.563Z,-8.7
2024-01-09T05:50:42.604Z,-8.7
2024-01-09T05:51:44.540Z,-8.6
2024-01-09T05:52:46.567Z,-8.6
2024-01-09T05:53:51.316Z,-8.5
2024-01-09T05:54:53.166Z,-8.6
2024-01-09T05:55:54.433Z,-8.5
2024-01-09T05:56:56.484Z,-8.5
2024-01-09T05:57:58.411Z,-8.5
2024-01-09T05:59:00.408Z,-8.5
2024-01-09T06:00:02.520Z,-8.6
2024-01-09T06:01:04.773Z,-8.6
2024-01-09T06:02:06.556Z,-8.6
2024-01-09T06:03:08.498Z,-8.6
2024-01-09T06:04:10.449Z,-8.6
2024-01-09T06:05:12.479Z,-8.6
2024-01-09T06:06:14.478Z,-8.6
2024-01-09T06:07:16.392Z,-8.5
2024-01-09T06:08:18.442Z,-8.5
2024-01-09T06:09:20.420Z,-8.5
2024-01-09T06:10:22.416Z,-8.5
2024-01-09T06:11:24.410Z,-8.5
2024-01-09T06:12:26.388Z,-8.5
2024-01-09T06:13:28.382Z,-8.5
2024-01-09T06:14:30.449Z,-8.5
2024-01-09T06:15:32.396Z,-8.5
2024-01-09T06:16:34.385Z,-8.5
2024-01-09T06:17:36.539Z,-8.4
2024-01-09T06:18:38.531Z,-8.3
2024-01-09T06:19:40.425Z,-8.3
2024-01-09T06:20:42.391Z,-8.2
2024-01-09T06:21:44.375Z,-8.2
2024-01-09T06:22:46.380Z,-8.2
2024-01-09T06:23:48.699Z,-8.1
2024-01-09T06:24:50.370Z,-8.1
2024-01-09T06:25:52.370Z,-8.1
2024-01-09T06:26:54.424Z,-8.1
2024-01-09T06:27:56.408Z,-8
2024-01-09T06:28:58.534Z,-8.1
2024-01-09T06:30:00.472Z,-8.1
2024-01-09T06:31:02.533Z,-8.1
2024-01-09T06:32:04.366Z,-8
2024-01-09T06:33:06.683Z,-8
2024-01-09T06:34:08.447Z,-8
2024-01-09T06:35:10.471Z,-7.9
2024-01-09T06:36:12.378Z,-7.9
2024-01-09T06:37:14.381Z,-7.9
2024-01-09T06:38:16.404Z,-7.9
2024-01-09T06:39:18.378Z,-7.9
2024-01-09T06:40:20.350Z,-7.9
2024-01-09T06:41:22.366Z,-7.9
2024-01-09T06:42:24.405Z,-7.9
2024-01-09T06:43:26.345Z,-7.8
2024-01-09T06:44:28.353Z,-7.8
2024-01-09T06:45:30.351Z,-7.7
2024-01-09T06:46:32.378Z,-7.7
2024-01-09T06:47:34.412Z,-7.7
2024-01-09T06:48:36.435Z,-7.7
2024-01-09T06:49:38.416Z,-7.7
2024-01-09T06:50:40.380Z,-7.7
2024-01-09T06:51:42.371Z,-7.7
2024-01-09T06:52:44.343Z,-7.7
2024-01-09T06:53:46.369Z,-7.7
2024-01-09T06:54:48.365Z,-7.7
2024-01-09T06:55:50.377Z,-7.7
2024-01-09T06:56:52.434Z,-7.7
2024-01-09T06:57:54.328Z,-7.7
2024-01-09T06:58:56.331Z,-7.7
2024-01-09T06:59:58.378Z,-7.7
2024-01-09T07:01:00.410Z,-7.7
2024-01-09T07:02:02.324Z,-7.7
2024-01-09T07:03:04.361Z,-7.6
2024-01-09T07:04:06.359Z,-7.7
2024-01-09T07:05:08.387Z,-7.6
2024-01-09T07:06:10.467Z,-7.6
2024-01-09T07:07:13.092Z,-7.6
2024-01-09T07:08:14.328Z,-7.6
2024-01-09T07:09:16.312Z,-7.6
2024-01-09T07:10:18.440Z,-7.6
2024-01-09T07:11:20.341Z,-7.6
2024-01-09T07:12:22.608Z,-7.6
2024-01-09T07:13:24.308Z,-7.6
2024-01-09T07:14:26.465Z,-7.6
2024-01-09T07:15:28.430Z,-7.6
2024-01-09T07:16:30.304Z,-7.6
2024-01-09T07:17:32.369Z,-7.6
2024-01-09T07:18:34.406Z,-7.6
2024-01-09T07:19:36.336Z,-7.5
2024-01-09T07:20:38.345Z,-7.5
2024-01-09T07:21:40.300Z,-7.5
2024-01-09T07:22:44.746Z,-7.5
2024-01-09T07:23:49.719Z,-7.5
2024-01-09T07:24:51.678Z,-7.5
2024-01-09T07:25:53.667Z,-7.5
2024-01-09T07:26:55.696Z,-7.5
2024-01-09T07:27:57.645Z,-7.5
2024-01-09T07:28:59.667Z,-7.5
2024-01-09T07:30:01.781Z,-7.5
2024-01-09T07:31:03.738Z,-7.5
2024-01-09T07:32:05.635Z,-7.5
2024-01-09T07:33:07.774Z,-7.6
2024-01-09T07:34:09.740Z,-7.7
2024-01-09T07:35:11.841Z,-7.7
2024-01-09T07:36:13.643Z,-7.9
2024-01-09T07:37:15.633Z,-8
2024-01-09T07:38:17.675Z,-8.1
2024-01-09T07:39:19.633Z,-8.2
2024-01-09T07:40:21.627Z,-8.3
2024-01-09T07:41:23.742Z,-8.4
2024-01-09T07:42:25.655Z,-8.5
2024-01-09T07:43:27.662Z,-8.5
2024-01-09T07:44:29.651Z,-8.5
2024-01-09T07:45:31.715Z,-8.5
2024-01-09T07:46:33.624Z,-8.4
2024-01-09T07:47:35.718Z,-8.3
2024-01-09T07:48:37.725Z,-8.3
2024-01-09T07:49:39.681Z,-8.3
2024-01-09T07:50:41.625Z,-8.4
2024-01-09T07:51:43.662Z,-8.5
2024-01-09T07:52:45.660Z,-8.6
2024-01-09T07:53:47.695Z,-8.7
2024-01-09T07:54:49.612Z,-8.7
2024-01-09T07:55:51.627Z,-8.8
2024-01-09T07:56:53.776Z,-8.8
2024-01-09T07:57:55.617Z,-8.9
2024-01-09T07:58:57.607Z,-8.9
2024-01-09T07:59:59.688Z,-8.9
2024-01-09T08:01:01.637Z,-8.9
2024-01-09T08:02:03.632Z,-8.9
2024-01-09T08:03:05.900Z,-8.9
2024-01-09T08:04:07.667Z,-8.9
2024-01-09T08:05:09.611Z,-8.8
2024-01-09T08:06:11.662Z,-8.8
2024-01-09T08:07:13.609Z,-8.7
2024-01-09T08:08:15.610Z,-8.6
2024-01-09T08:09:17.692Z,-8.4
2024-01-09T08:10:19.598Z,-8.2
2024-01-09T08:11:21.636Z,-8.1
2024-01-09T08:12:23.616Z,-8.1
2024-01-09T08:13:25.589Z,-8
2024-01-09T08:14:27.612Z,-7.9
2024-01-09T08:15:29.615Z,-7.9
2024-01-09T08:16:31.610Z,-7.9
2024-01-09T08:17:33.692Z,-7.8
2024-01-09T08:18:35.764Z,-7.7
2024-01-09T08:19:37.594Z,-7.7
2024-01-09T08:20:39.641Z,-7.7
2024-01-09T08:21:42.753Z,-7.7
2024-01-09T08:22:43.582Z,-7.7
2024-01-09T08:23:45.577Z,-7.7
2024-01-09T08:24:47.596Z,-7.6
2024-01-09T08:25:49.597Z,-7.6
2024-01-09T08:26:51.605Z,-7.7
2024-01-09T08:27:53.590Z,-7.7
2024-01-09T08:28:55.564Z,-7.7
2024-01-09T08:29:57.668Z,-7.7
2024-01-09T08:30:59.597Z,-7.8
2024-01-09T08:32:01.576Z,-7.9
2024-01-09T08:33:03.698Z,-7.9
2024-01-09T08:34:05.634Z,-8
2024-01-09T08:35:07.607Z,-8.1
2024-01-09T08:36:09.583Z,-8.2
2024-01-09T08:37:11.681Z,-8.3
2024-01-09T08:38:13.613Z,-8.3
2024-01-09T08:39:15.795Z,-8.3
2024-01-09T08:40:17.569Z,-8.5
2024-01-09T08:41:19.646Z,-8.5
2024-01-09T08:42:21.544Z,-8.5
2024-01-09T08:43:23.621Z,-8.5
2024-01-09T08:44:25.778Z,-8.5
2024-01-09T08:45:27.546Z,-8.6
2024-01-09T08:46:29.562Z,-8.6
2024-01-09T08:47:31.585Z,-8.6
2024-01-09T08:48:33.709Z,-8.6
2024-01-09T08:49:35.600Z,-8.7
2024-01-09T08:50:37.571Z,-8.7
2024-01-09T08:51:39.843Z,-8.7
2024-01-09T08:52:41.533Z,-8.7
2024-01-09T08:53:43.587Z,-8.7
2024-01-09T08:54:45.550Z,-8.7
2024-01-09T08:55:47.557Z,-8.7
2024-01-09T08:56:49.546Z,-8.7
2024-01-09T08:57:51.560Z,-8.7
2024-01-09T08:58:53.575Z,-8.7
2024-01-09T08:59:58.027Z,-8.7
2024-01-09T09:01:00.083Z,-8.7
2024-01-09T09:02:02.127Z,-8.6
2024-01-09T09:03:04.213Z,-8.6
2024-01-09T09:04:06.243Z,-8.5
2024-01-09T09:05:08.055Z,-8.5
2024-01-09T09:06:10.160Z,-8.3
2024-01-09T09:07:12.095Z,-8.2
2024-01-09T09:08:14.151Z,-8.1
2024-01-09T09:11:28.091Z,-7.8
2024-01-09T09:12:30.117Z,-7.7
2024-01-09T09:13:32.093Z,-7.7
2024-01-09T09:15:40.124Z,-7.6
2024-01-09T09:16:43.789Z,-7.6
2024-01-09T09:17:44.557Z,-7.5
2024-01-09T09:18:46.622Z,-7.5
2024-01-09T09:19:48.550Z,-7.4
2024-01-09T09:20:50.926Z,-7.4
2024-01-09T09:21:52.491Z,-7.3
2024-01-09T09:22:54.465Z,-7.3
2024-01-09T09:23:57.105Z,-7.2
2024-01-09T09:24:58.821Z,-7.1
2024-01-09T09:26:00.586Z,-7.1
2024-01-09T09:27:03.009Z,-7.1
2024-01-09T09:28:04.986Z,-7
2024-01-09T09:29:11.854Z,-7
2024-01-09T09:30:33.099Z,-7
2024-01-09T09:31:35.170Z,-6.9
2024-01-09T09:32:37.197Z,-6.8
2024-01-09T09:33:38.740Z,-6.8
2024-01-09T09:34:43.358Z,-6.7
2024-01-09T09:35:48.270Z,-6.7
2024-01-09T09:36:50.036Z,-6.6
2024-01-09T09:37:52.362Z,-6.6
2024-01-09T09:38:54.476Z,-6.5
2024-01-09T09:39:56.146Z,-6.5
2024-01-09T09:40:58.195Z,-6.5
2024-01-09T09:42:00.132Z,-6.4
2024-01-09T09:43:02.330Z,-6.4
2024-01-09T09:44:04.106Z,-6.4
2024-01-09T09:45:05.872Z,-6.3
2024-01-09T09:46:09.446Z,-6.3
2024-01-09T09:47:12.941Z,-6.3
2024-01-09T09:48:14.959Z,-6.3
2024-01-09T09:49:17.245Z,-6.2
2024-01-09T09:50:19.238Z,-6.2
2024-01-09T09:51:23.150Z,-6.2
2024-01-09T09:52:27.192Z,-6.1
2024-01-09T09:53:29.655Z,-6.1
2024-01-09T09:54:31.160Z,-6.1
2024-01-09T09:55:33.151Z,-6
2024-01-09T09:56:35.135Z,-6
2024-01-09T09:57:37.124Z,-6
2024-01-09T09:58:39.117Z,-6
2024-01-09T09:59:41.158Z,-5.9
2024-01-09T10:00:43.136Z,-5.8
2024-01-09T10:01:45.129Z,-5.8
2024-01-09T10:02:47.246Z,-5.8
2024-01-09T10:03:49.314Z,-5.7
2024-01-09T10:04:51.136Z,-5.7
2024-01-09T10:05:53.177Z,-5.6
2024-01-09T10:06:55.162Z,-5.6
2024-01-09T10:07:57.120Z,-5.6
2024-01-09T10:08:59.195Z,-5.6
2024-01-09T10:10:01.105Z,-5.5
2024-01-09T10:11:03.103Z,-5.4
2024-01-09T10:12:05.096Z,-5.4
2024-01-09T10:13:07.098Z,-5.4
2024-01-09T10:14:09.123Z,-5.3
2024-01-09T10:15:11.392Z,-5.2
2024-01-09T10:16:13.101Z,-5.2
2024-01-09T10:17:15.141Z,-5.2
2024-01-09T10:18:17.314Z,-5.2
2024-01-09T10:19:19.177Z,-5.2
2024-01-09T10:20:22.200Z,-5.1
2024-01-09T10:21:26.816Z,-5.1
2024-01-09T10:22:28.826Z,-5
2024-01-09T10:23:30.859Z,-5
2024-01-09T10:24:32.803Z,-4.9
2024-01-09T10:25:34.811Z,-4.9
2024-01-09T10:26:36.816Z,-4.8
2024-01-09T10:27:38.859Z,-4.8
2024-01-09T10:28:40.815Z,-4.8
2024-01-09T10:29:42.901Z,-4.7
2024-01-09T10:30:44.798Z,-4.6
2024-01-09T10:31:46.839Z,-4.6
2024-01-09T10:32:48.846Z,-4.6
2024-01-09T10:33:51.109Z,-4.6
2024-01-09T10:34:52.816Z,-4.5
2024-01-09T10:35:54.795Z,-4.5
2024-01-09T10:36:56.808Z,-4.4
2024-01-09T10:37:58.776Z,-4.4
2024-01-09T10:39:00.816Z,-4.3
2024-01-09T10:40:02.796Z,-4.2
2024-01-09T10:41:04.775Z,-4.2
2024-01-09T10:42:06.925Z,-4.2
2024-01-09T10:43:08.782Z,-4.1
2024-01-09T10:44:10.769Z,-4
2024-01-09T10:45:12.764Z,-4
2024-01-09T10:46:14.793Z,-3.8
2024-01-09T10:47:16.822Z,-3.8
2024-01-09T10:48:18.841Z,-3.7
2024-01-09T10:49:23.184Z,-3.6
2024-01-09T10:50:24.702Z,-3.5
2024-01-09T10:51:26.659Z,-3.4
2024-01-09T10:52:28.630Z,-3.3
2024-01-09T10:53:30.628Z,-3.2
2024-01-09T10:54:32.626Z,-3
2024-01-09T10:55:34.656Z,-2.9
2024-01-09T10:56:36.673Z,-2.7
2024-01-09T10:57:38.625Z,-2.4
2024-01-09T10:58:40.621Z,-1.9
2024-01-09T10:59:42.673Z,-1.1
2024-01-09T11:00:44.671Z,-0.1
2024-01-09T11:01:46.616Z,1
2024-01-09T11:02:48.754Z,2.1
2024-01-09T11:03:50.659Z,3
2024-01-09T11:04:52.668Z,3.7
2024-01-09T11:05:54.696Z,4.3
2024-01-09T11:06:56.658Z,4.5
2024-01-09T11:07:58.612Z,4.6
2024-01-09T11:09:00.611Z,4.7
2024-01-09T11:10:02.648Z,5
2024-01-09T11:11:04.611Z,5.2
2024-01-09T11:12:06.645Z,5.4
2024-01-09T11:13:08.603Z,5.6
2024-01-09T11:14:10.635Z,5.8
2024-01-09T11:15:12.637Z,5.9
2024-01-09T11:16:14.602Z,5.9
2024-01-09T11:17:16.653Z,6.1
2024-01-09T11:18:18.753Z,6.3
2024-01-09T11:19:20.766Z,6.4
2024-01-09T11:20:22.719Z,6.6
2024-01-09T11:21:24.682Z,6.7
2024-01-09T11:22:26.684Z,6.6
2024-01-09T11:23:28.720Z,6.6
2024-01-09T11:24:30.701Z,6.5
2024-01-09T11:25:32.671Z,6.5
2024-01-09T11:26:34.852Z,6.5
2024-01-09T11:27:36.747Z,6.6
2024-01-09T11:28:38.720Z,6.6
2024-01-09T11:29:40.729Z,6.5
2024-01-09T11:30:42.776Z,6.4
2024-01-09T11:31:44.660Z,6
2024-01-09T11:32:46.734Z,5.7
2024-01-09T11:33:48.780Z,5.5
2024-01-09T11:34:50.748Z,5
2024-01-09T11:35:52.706Z,4.4
2024-01-09T11:36:54.657Z,3.7
2024-01-09T11:37:56.810Z,3
2024-01-09T11:38:58.711Z,2.2
2024-01-09T11:40:00.671Z,1.5
2024-01-09T11:41:02.653Z,0.8
2024-01-09T11:42:05.067Z,0.2
2024-01-09T11:43:06.686Z,-0.2
2024-01-09T11:44:08.887Z,-0.7
2024-01-09T11:45:10.907Z,-1
2024-01-09T11:46:12.652Z,-1.2
2024-01-09T11:47:14.748Z,-1.4
2024-01-09T11:48:16.786Z,-1.6
2024-01-09T11:49:18.871Z,-1.8
2024-01-09T11:50:20.757Z,-1.9
2024-01-09T11:51:23.237Z,-2
2024-01-09T11:52:24.681Z,-2.1
2024-01-09T11:53:26.652Z,-2.2
2024-01-09T11:54:28.651Z,-2.2
2024-01-09T11:55:30.639Z,-2.3
2024-01-09T11:56:32.724Z,-2.3
2024-01-09T11:57:34.637Z,-2.3
2024-01-09T11:58:36.647Z,-2.3
2024-01-09T11:59:38.639Z,-2.4
2024-01-09T12:00:40.686Z,-2.4
2024-01-09T12:01:42.652Z,-2.5
2024-01-09T12:02:44.658Z,-2.5
2024-01-09T12:03:46.622Z,-2.5
2024-01-09T12:04:48.808Z,-2.5
2024-01-09T12:05:50.668Z,-2.5
2024-01-09T12:06:52.660Z,-2.5
2024-01-09T12:07:54.624Z,-2.5
2024-01-09T12:08:56.696Z,-2.5
2024-01-09T12:09:58.642Z,-2.5
2024-01-09T12:11:00.639Z,-2.5
2024-01-09T12:12:02.722Z,-2.5
2024-01-09T12:13:04.620Z,-2.5
2024-01-09T12:14:06.623Z,-2.5
2024-01-09T12:15:08.637Z,-2.4
2024-01-09T12:16:10.614Z,-2.4
2024-01-09T12:17:12.609Z,-2.4
2024-01-09T12:18:14.661Z,-2.4
2024-01-09T12:19:16.621Z,-2.4
2024-01-09T12:20:18.647Z,-2.3
2024-01-09T12:21:20.641Z,-2.4
2024-01-09T12:22:22.639Z,-2.4
2024-01-09T12:23:24.632Z,-2.4
2024-01-09T12:24:27.904Z,-2.4
2024-01-09T12:25:32.145Z,-2.3
2024-01-09T12:26:34.151Z,-2.3
2024-01-09T12:27:36.112Z,-2.3
2024-01-09T12:28:38.126Z,-2.3
2024-01-09T12:29:40.194Z,-2.3
2024-01-09T12:30:42.130Z,-2.3
2024-01-09T12:31:44.103Z,-2.3
2024-01-09T12:32:46.228Z,-2.3
2024-01-09T12:33:48.275Z,-2.3
2024-01-09T12:34:50.156Z,-2.3
2024-01-09T12:35:52.134Z,-2.3
2024-01-09T12:36:54.099Z,-2.3
2024-01-09T12:37:56.128Z,-2.3
2024-01-09T12:38:58.377Z,-2.3
2024-01-09T12:40:00.133Z,-2.3
2024-01-09T12:41:02.094Z,-2.3
2024-01-09T12:42:04.103Z,-2.2
2024-01-09T12:43:06.089Z,-2.2
2024-01-09T12:44:08.119Z,-2.2
2024-01-09T12:45:10.109Z,-2.2
2024-01-09T12:46:12.094Z,-2.2
2024-01-09T12:47:14.091Z,-2.2
2024-01-09T12:48:16.271Z,-2.1
2024-01-09T12:49:18.257Z,-2.1
2024-01-09T12:50:20.123Z,-2.1
2024-01-09T12:51:22.135Z,-2.1
2024-01-09T12:52:24.090Z,-2.1
2024-01-09T12:53:26.151Z,-2.1
2024-01-09T12:54:28.078Z,-2.1
2024-01-09T12:55:30.083Z,-2.1
2024-01-09T12:56:32.086Z,-2.1
2024-01-09T12:57:34.115Z,-2.1
2024-01-09T12:58:36.128Z,-2.1
2024-01-09T12:59:38.145Z,-2.1
2024-01-09T13:00:40.106Z,-2
2024-01-09T13:01:42.089Z,-2.1
2024-01-09T13:02:44.163Z,-2
2024-01-09T13:03:46.188Z,-1.9
2024-01-09T13:04:48.198Z,-1.9
2024-01-09T13:05:50.115Z,-1.9
2024-01-09T13:06:52.110Z,-1.9
2024-01-09T13:07:54.099Z,-1.9
2024-01-09T13:08:56.111Z,-1.9
2024-01-09T13:09:58.173Z,-1.9
2024-01-09T13:11:00.486Z,-1.9
2024-01-09T13:12:02.098Z,-1.9
2024-01-09T13:13:04.052Z,-1.8
2024-01-09T13:14:07.892Z,-1.9
2024-01-09T13:15:10.894Z,-1.9
2024-01-09T13:16:12.171Z,-1.8
2024-01-09T13:17:14.657Z,-1.8
2024-01-09T13:18:18.812Z,-1.8
2024-01-09T13:19:20.622Z,-1.8
2024-01-09T13:20:21.934Z,-1.8
2024-01-09T13:21:23.911Z,-1.8
2024-01-09T13:24:50.760Z,-1.9
2024-01-09T13:25:52.749Z,-1.8
2024-01-09T13:26:54.753Z,-1.8
2024-01-09T13:27:56.719Z,-1.8
2024-01-09T13:31:12.003Z,-1.8
2024-01-09T13:32:13.969Z,-1.8
2024-01-09T13:33:16.003Z,-1.8
2024-01-09T13:34:17.972Z,-1.8
2024-01-09T13:35:20.109Z,-1.8
2024-01-09T13:36:23.330Z,-1.8
2024-01-09T13:37:24.136Z,-1.8
2024-01-09T13:38:26.111Z,-1.8
2024-01-09T13:39:28.114Z,-1.8
2024-01-09T13:40:30.166Z,-1.8
2024-01-09T13:41:32.257Z,-1.8
2024-01-09T13:42:34.119Z,-1.7
2024-01-09T13:43:36.488Z,-1.8
2024-01-09T13:44:38.800Z,-1.8
2024-01-09T13:45:40.582Z,-1.7
2024-01-09T13:46:42.185Z,-1.8
2024-01-09T13:47:44.486Z,-1.8
2024-01-09T13:48:46.194Z,-1.7
2024-01-09T13:51:25.614Z,-1.7
2024-01-09T13:52:55.427Z,-1.7
2024-01-09T13:53:57.422Z,-1.7
2024-01-09T13:54:59.473Z,-1.7
2024-01-09T13:56:01.456Z,-1.7
2024-01-09T13:57:03.416Z,-1.7
2024-01-09T13:58:05.450Z,-1.7
2024-01-09T13:59:09.440Z,-1.7
2024-01-09T14:00:11.463Z,-1.7